sensor_id;sensor_type;location;lat;lon;timestamp;temperature;humidity
4245;DHT22;2136;48.502;9.194;2023-04-03T00:00:22;7.20;65.70
4245;DHT22;2136;48.502;9.194;2023-04-03T00:02:49;7.00;65.20
4245;DHT22;2136;48.502;9.194;2023-04-03T00:05:16;7.00;65.20
4245;DHT22;2136;48.502;9.194;2023-04-03T00:07:43;7.00;65.00
4245;DHT22;2136;48.502;9.194;2023-04-03T00:10:10;7.00;64.90
4245;DHT22;2136;48.502;9.194;2023-04-03T00:12:37;7.00;65.10
4245;DHT22;2136;48.502;9.194;2023-04-03T00:15:05;7.00;64.80
4245;DHT22;2136;48.502;9.194;2023-04-03T00:17:34;7.00;65.10
4245;DHT22;2136;48.502;9.194;2023-04-03T00:20:01;7.00;65.00
4245;DHT22;2136;48.502;9.194;2023-04-03T00:22:28;7.10;64.70
4245;DHT22;2136;48.502;9.194;2023-04-03T00:24:55;7.00;64.40
4245;DHT22;2136;48.502;9.194;2023-04-03T00:27:22;7.00;64.70
4245;DHT22;2136;48.502;9.194;2023-04-03T00:29:49;7.10;64.50
4245;DHT22;2136;48.502;9.194;2023-04-03T00:32:16;7.10;64.60
4245;DHT22;2136;48.502;9.194;2023-04-03T00:34:44;7.10;64.70
4245;DHT22;2136;48.502;9.194;2023-04-03T00:37:11;7.10;64.80
4245;DHT22;2136;48.502;9.194;2023-04-03T00:39:38;7.10;64.60
4245;DHT22;2136;48.502;9.194;2023-04-03T00:42:05;7.10;64.40
4245;DHT22;2136;48.502;9.194;2023-04-03T00:47:38;7.10;65.00
4245;DHT22;2136;48.502;9.194;2023-04-03T00:50:09;7.10;64.50
4245;DHT22;2136;48.502;9.194;2023-04-03T00:52:37;7.10;64.50
4245;DHT22;2136;48.502;9.194;2023-04-03T00:55:06;7.10;64.40
4245;DHT22;2136;48.502;9.194;2023-04-03T00:57:34;7.00;64.20
4245;DHT22;2136;48.502;9.194;2023-04-03T01:00:05;7.00;64.30
4245;DHT22;2136;48.502;9.194;2023-04-03T01:02:34;7.00;64.60
4245;DHT22;2136;48.502;9.194;2023-04-03T01:05:01;7.00;64.50
4245;DHT22;2136;48.502;9.194;2023-04-03T01:07:31;7.00;64.80
4245;DHT22;2136;48.502;9.194;2023-04-03T01:10:01;7.00;64.70
4245;DHT22;2136;48.502;9.194;2023-04-03T01:12:31;6.90;65.60
4245;DHT22;2136;48.502;9.194;2023-04-03T01:15:00;6.90;64.60
4245;DHT22;2136;48.502;9.194;2023-04-03T01:17:29;6.90;64.70
4245;DHT22;2136;48.502;9.194;2023-04-03T01:20:26;6.90;64.60
4245;DHT22;2136;48.502;9.194;2023-04-03T01:23:11;6.90;65.50
4245;DHT22;2136;48.502;9.194;2023-04-03T01:25:41;6.90;65.10
4245;DHT22;2136;48.502;9.194;2023-04-03T01:28:11;6.80;64.90
4245;DHT22;2136;48.502;9.194;2023-04-03T01:30:42;6.80;65.00
4245;DHT22;2136;48.502;9.194;2023-04-03T01:33:12;6.80;65.10
4245;DHT22;2136;48.502;9.194;2023-04-03T01:35:39;6.80;65.10
4245;DHT22;2136;48.502;9.194;2023-04-03T01:38:06;6.80;64.80
4245;DHT22;2136;48.502;9.194;2023-04-03T01:40:33;6.80;65.00
4245;DHT22;2136;48.502;9.194;2023-04-03T01:43:00;6.80;65.00
4245;DHT22;2136;48.502;9.194;2023-04-03T01:45:27;6.80;64.70
4245;DHT22;2136;48.502;9.194;2023-04-03T01:47:54;6.80;64.70
4245;DHT22;2136;48.502;9.194;2023-04-03T01:50:22;6.70;64.80
4245;DHT22;2136;48.502;9.194;2023-04-03T01:52:49;6.80;65.10
4245;DHT22;2136;48.502;9.194;2023-04-03T01:55:16;6.80;64.60
4245;DHT22;2136;48.502;9.194;2023-04-03T01:57:43;6.80;64.50
4245;DHT22;2136;48.502;9.194;2023-04-03T02:00:10;6.70;64.40
4245;DHT22;2136;48.502;9.194;2023-04-03T02:02:37;6.70;64.60
4245;DHT22;2136;48.502;9.194;2023-04-03T02:05:05;6.70;65.30
4245;DHT22;2136;48.502;9.194;2023-04-03T02:07:33;6.70;64.70
4245;DHT22;2136;48.502;9.194;2023-04-03T02:10:00;6.60;64.70
4245;DHT22;2136;48.502;9.194;2023-04-03T02:12:26;6.60;64.50
4245;DHT22;2136;48.502;9.194;2023-04-03T02:14:53;6.60;64.70
4245;DHT22;2136;48.502;9.194;2023-04-03T02:17:20;6.60;65.10
4245;DHT22;2136;48.502;9.194;2023-04-03T02:19:47;6.60;65.00
4245;DHT22;2136;48.502;9.194;2023-04-03T02:22:14;6.50;65.00
4245;DHT22;2136;48.502;9.194;2023-04-03T02:24:42;6.60;65.10
4245;DHT22;2136;48.502;9.194;2023-04-03T02:27:09;6.50;65.10
4245;DHT22;2136;48.502;9.194;2023-04-03T02:29:36;6.50;65.50
4245;DHT22;2136;48.502;9.194;2023-04-03T02:32:04;6.50;65.70
4245;DHT22;2136;48.502;9.194;2023-04-03T02:34:31;6.50;65.70
4245;DHT22;2136;48.502;9.194;2023-04-03T02:36:58;6.50;65.60
4245;DHT22;2136;48.502;9.194;2023-04-03T02:39:25;6.50;65.60
4245;DHT22;2136;48.502;9.194;2023-04-03T02:41:53;6.40;65.80
4245;DHT22;2136;48.502;9.194;2023-04-03T02:44:19;6.40;65.80
4245;DHT22;2136;48.502;9.194;2023-04-03T02:46:46;6.40;65.50
4245;DHT22;2136;48.502;9.194;2023-04-03T02:49:13;6.40;65.40
4245;DHT22;2136;48.502;9.194;2023-04-03T02:51:41;6.40;65.40
4245;DHT22;2136;48.502;9.194;2023-04-03T02:54:08;6.40;65.40
4245;DHT22;2136;48.502;9.194;2023-04-03T02:56:35;6.40;65.30
4245;DHT22;2136;48.502;9.194;2023-04-03T02:59:03;6.30;64.90
4245;DHT22;2136;48.502;9.194;2023-04-03T03:01:30;6.30;64.80
4245;DHT22;2136;48.502;9.194;2023-04-03T03:03:58;6.20;65.10
4245;DHT22;2136;48.502;9.194;2023-04-03T03:06:24;6.20;65.30
4245;DHT22;2136;48.502;9.194;2023-04-03T03:08:51;6.10;65.60
4245;DHT22;2136;48.502;9.194;2023-04-03T03:11:18;6.10;65.90
4245;DHT22;2136;48.502;9.194;2023-04-03T03:13:46;6.10;65.80
4245;DHT22;2136;48.502;9.194;2023-04-03T03:16:14;6.10;66.40
4245;DHT22;2136;48.502;9.194;2023-04-03T03:18:41;6.10;65.90
4245;DHT22;2136;48.502;9.194;2023-04-03T03:21:09;6.10;65.80
4245;DHT22;2136;48.502;9.194;2023-04-03T03:23:37;6.00;65.90
4245;DHT22;2136;48.502;9.194;2023-04-03T03:26:05;6.00;66.00
4245;DHT22;2136;48.502;9.194;2023-04-03T03:28:32;6.10;65.80
4245;DHT22;2136;48.502;9.194;2023-04-03T03:31:01;6.00;65.80
4245;DHT22;2136;48.502;9.194;2023-04-03T03:33:29;6.00;66.20
4245;DHT22;2136;48.502;9.194;2023-04-03T03:35:56;6.00;65.90
4245;DHT22;2136;48.502;9.194;2023-04-03T03:38:23;5.90;66.00
4245;DHT22;2136;48.502;9.194;2023-04-03T03:40:51;5.90;66.10
4245;DHT22;2136;48.502;9.194;2023-04-03T03:43:18;6.00;66.10
4245;DHT22;2136;48.502;9.194;2023-04-03T03:45:50;5.90;66.10
4245;DHT22;2136;48.502;9.194;2023-04-03T03:48:17;6.00;66.10
4245;DHT22;2136;48.502;9.194;2023-04-03T03:50:46;6.00;66.20
4245;DHT22;2136;48.502;9.194;2023-04-03T03:53:13;5.90;66.10
4245;DHT22;2136;48.502;9.194;2023-04-03T03:55:40;6.00;65.90
4245;DHT22;2136;48.502;9.194;2023-04-03T03:58:07;6.00;65.80
4245;DHT22;2136;48.502;9.194;2023-04-03T04:00:34;6.00;66.00
4245;DHT22;2136;48.502;9.194;2023-04-03T04:03:01;6.00;65.90
4245;DHT22;2136;48.502;9.194;2023-04-03T04:05:28;6.00;65.80
4245;DHT22;2136;48.502;9.194;2023-04-03T04:07:57;6.00;65.50
4245;DHT22;2136;48.502;9.194;2023-04-03T04:10:24;6.00;65.50
4245;DHT22;2136;48.502;9.194;2023-04-03T04:12:51;5.90;65.70
4245;DHT22;2136;48.502;9.194;2023-04-03T04:15:18;6.00;65.90
4245;DHT22;2136;48.502;9.194;2023-04-03T04:17:47;5.90;65.90
4245;DHT22;2136;48.502;9.194;2023-04-03T04:20:13;5.90;65.70
4245;DHT22;2136;48.502;9.194;2023-04-03T04:22:40;5.90;66.00
4245;DHT22;2136;48.502;9.194;2023-04-03T04:25:09;5.90;66.10
4245;DHT22;2136;48.502;9.194;2023-04-03T04:27:36;5.90;66.20
4245;DHT22;2136;48.502;9.194;2023-04-03T04:30:04;5.90;66.30
4245;DHT22;2136;48.502;9.194;2023-04-03T04:32:31;5.90;66.10
4245;DHT22;2136;48.502;9.194;2023-04-03T04:34:58;6.00;65.80
4245;DHT22;2136;48.502;9.194;2023-04-03T04:37:25;5.90;65.80
4245;DHT22;2136;48.502;9.194;2023-04-03T04:39:52;5.90;65.40
4245;DHT22;2136;48.502;9.194;2023-04-03T04:42:20;6.00;64.90
4245;DHT22;2136;48.502;9.194;2023-04-03T04:44:47;6.00;64.60
4245;DHT22;2136;48.502;9.194;2023-04-03T04:47:14;5.90;63.70
4245;DHT22;2136;48.502;9.194;2023-04-03T04:49:41;5.90;63.80
4245;DHT22;2136;48.502;9.194;2023-04-03T04:52:08;6.00;63.90
4245;DHT22;2136;48.502;9.194;2023-04-03T04:54:35;6.00;63.60
4245;DHT22;2136;48.502;9.194;2023-04-03T04:57:02;6.00;63.40
4245;DHT22;2136;48.502;9.194;2023-04-03T04:59:30;6.00;63.50
4245;DHT22;2136;48.502;9.194;2023-04-03T05:01:57;6.00;63.40
4245;DHT22;2136;48.502;9.194;2023-04-03T05:04:24;5.90;63.40
4245;DHT22;2136;48.502;9.194;2023-04-03T05:06:51;5.90;63.30
4245;DHT22;2136;48.502;9.194;2023-04-03T05:09:18;6.00;63.20
4245;DHT22;2136;48.502;9.194;2023-04-03T05:11:45;5.90;63.30
4245;DHT22;2136;48.502;9.194;2023-04-03T05:14:12;5.90;63.60
4245;DHT22;2136;48.502;9.194;2023-04-03T05:16:41;6.00;63.80
4245;DHT22;2136;48.502;9.194;2023-04-03T05:19:07;6.10;63.30
4245;DHT22;2136;48.502;9.194;2023-04-03T05:21:34;6.10;63.10
4245;DHT22;2136;48.502;9.194;2023-04-03T05:24:01;6.10;63.30
4245;DHT22;2136;48.502;9.194;2023-04-03T05:26:29;6.10;63.30
4245;DHT22;2136;48.502;9.194;2023-04-03T05:28:56;6.10;63.30
4245;DHT22;2136;48.502;9.194;2023-04-03T05:31:23;6.10;63.30
4245;DHT22;2136;48.502;9.194;2023-04-03T05:33:51;6.10;63.10
4245;DHT22;2136;48.502;9.194;2023-04-03T05:36:18;6.00;63.30
4245;DHT22;2136;48.502;9.194;2023-04-03T05:38:44;6.00;63.00
4245;DHT22;2136;48.502;9.194;2023-04-03T05:41:12;6.10;62.40
4245;DHT22;2136;48.502;9.194;2023-04-03T05:43:38;6.00;61.70
4245;DHT22;2136;48.502;9.194;2023-04-03T05:46:09;6.10;61.00
4245;DHT22;2136;48.502;9.194;2023-04-03T05:48:36;6.10;60.50
4245;DHT22;2136;48.502;9.194;2023-04-03T05:51:06;6.20;60.30
4245;DHT22;2136;48.502;9.194;2023-04-03T05:53:35;6.20;60.00
4245;DHT22;2136;48.502;9.194;2023-04-03T05:56:02;6.20;60.10
4245;DHT22;2136;48.502;9.194;2023-04-03T05:58:29;6.30;60.00
4245;DHT22;2136;48.502;9.194;2023-04-03T06:00:56;6.30;59.90
4245;DHT22;2136;48.502;9.194;2023-04-03T06:03:23;6.40;60.30
4245;DHT22;2136;48.502;9.194;2023-04-03T06:05:51;6.30;59.80
4245;DHT22;2136;48.502;9.194;2023-04-03T06:08:19;6.40;59.70
4245;DHT22;2136;48.502;9.194;2023-04-03T06:10:46;6.40;59.40
4245;DHT22;2136;48.502;9.194;2023-04-03T06:13:13;6.40;59.30
4245;DHT22;2136;48.502;9.194;2023-04-03T06:15:40;6.50;59.20
4245;DHT22;2136;48.502;9.194;2023-04-03T06:18:07;6.40;59.00
4245;DHT22;2136;48.502;9.194;2023-04-03T06:20:34;6.50;59.10
4245;DHT22;2136;48.502;9.194;2023-04-03T06:23:01;6.50;59.00
4245;DHT22;2136;48.502;9.194;2023-04-03T06:25:29;6.60;58.50
4245;DHT22;2136;48.502;9.194;2023-04-03T06:27:57;6.80;59.10
4245;DHT22;2136;48.502;9.194;2023-04-03T06:30:24;6.70;58.40
4245;DHT22;2136;48.502;9.194;2023-04-03T06:32:51;6.70;58.00
4245;DHT22;2136;48.502;9.194;2023-04-03T06:35:18;6.70;57.60
4245;DHT22;2136;48.502;9.194;2023-04-03T06:37:44;6.60;57.10
4245;DHT22;2136;48.502;9.194;2023-04-03T06:40:16;6.70;57.40
4245;DHT22;2136;48.502;9.194;2023-04-03T06:42:47;6.60;57.50
4245;DHT22;2136;48.502;9.194;2023-04-03T06:45:14;6.70;57.10
4245;DHT22;2136;48.502;9.194;2023-04-03T06:47:41;6.70;56.90
4245;DHT22;2136;48.502;9.194;2023-04-03T06:50:09;6.80;56.80
4245;DHT22;2136;48.502;9.194;2023-04-03T06:52:37;6.80;57.00
4245;DHT22;2136;48.502;9.194;2023-04-03T06:55:05;6.80;56.80
4245;DHT22;2136;48.502;9.194;2023-04-03T06:57:32;6.80;56.90
4245;DHT22;2136;48.502;9.194;2023-04-03T07:00:00;6.80;56.50
4245;DHT22;2136;48.502;9.194;2023-04-03T07:02:29;6.90;56.60
4245;DHT22;2136;48.502;9.194;2023-04-03T07:04:56;6.90;56.40
4245;DHT22;2136;48.502;9.194;2023-04-03T07:07:23;7.00;56.20
4245;DHT22;2136;48.502;9.194;2023-04-03T07:09:49;7.20;56.10
4245;DHT22;2136;48.502;9.194;2023-04-03T07:12:16;7.30;56.10
4245;DHT22;2136;48.502;9.194;2023-04-03T07:14:43;7.40;55.80
4245;DHT22;2136;48.502;9.194;2023-04-03T07:17:11;7.40;56.10
4245;DHT22;2136;48.502;9.194;2023-04-03T07:19:38;7.50;55.70
4245;DHT22;2136;48.502;9.194;2023-04-03T07:22:05;7.70;55.70
4245;DHT22;2136;48.502;9.194;2023-04-03T07:24:33;7.80;55.60
4245;DHT22;2136;48.502;9.194;2023-04-03T07:27:00;8.00;55.90
4245;DHT22;2136;48.502;9.194;2023-04-03T07:29:28;8.20;55.50
4245;DHT22;2136;48.502;9.194;2023-04-03T07:31:55;8.30;55.00
4245;DHT22;2136;48.502;9.194;2023-04-03T07:34:24;8.50;54.70
4245;DHT22;2136;48.502;9.194;2023-04-03T07:36:50;8.50;53.50
4245;DHT22;2136;48.502;9.194;2023-04-03T07:39:17;8.60;53.10
4245;DHT22;2136;48.502;9.194;2023-04-03T07:41:44;8.70;53.30
4245;DHT22;2136;48.502;9.194;2023-04-03T07:44:11;8.90;53.60
4245;DHT22;2136;48.502;9.194;2023-04-03T07:46:38;9.00;53.30
4245;DHT22;2136;48.502;9.194;2023-04-03T07:49:06;9.30;53.10
4245;DHT22;2136;48.502;9.194;2023-04-03T07:51:34;9.40;52.80
4245;DHT22;2136;48.502;9.194;2023-04-03T07:54:01;9.50;52.20
4245;DHT22;2136;48.502;9.194;2023-04-03T07:56:29;9.60;52.30
4245;DHT22;2136;48.502;9.194;2023-04-03T07:58:56;9.90;51.50
4245;DHT22;2136;48.502;9.194;2023-04-03T08:01:22;10.00;50.40
4245;DHT22;2136;48.502;9.194;2023-04-03T08:03:49;10.10;50.00
4245;DHT22;2136;48.502;9.194;2023-04-03T08:06:17;10.20;49.70
4245;DHT22;2136;48.502;9.194;2023-04-03T08:08:46;10.30;50.20
4245;DHT22;2136;48.502;9.194;2023-04-03T08:11:13;10.50;49.80
4245;DHT22;2136;48.502;9.194;2023-04-03T08:13:40;10.80;49.10
4245;DHT22;2136;48.502;9.194;2023-04-03T08:16:12;10.80;48.60
4245;DHT22;2136;48.502;9.194;2023-04-03T08:18:39;10.90;48.50
4245;DHT22;2136;48.502;9.194;2023-04-03T08:21:07;10.90;47.70
4245;DHT22;2136;48.502;9.194;2023-04-03T08:23:34;11.00;47.10
4245;DHT22;2136;48.502;9.194;2023-04-03T08:26:07;11.00;47.20
4245;DHT22;2136;48.502;9.194;2023-04-03T08:28:34;11.00;47.50
4245;DHT22;2136;48.502;9.194;2023-04-03T08:31:03;11.10;47.20
4245;DHT22;2136;48.502;9.194;2023-04-03T08:33:32;11.20;47.20
4245;DHT22;2136;48.502;9.194;2023-04-03T08:35:59;11.40;47.40
4245;DHT22;2136;48.502;9.194;2023-04-03T08:38:26;11.50;46.50
4245;DHT22;2136;48.502;9.194;2023-04-03T08:41:01;11.70;46.90
4245;DHT22;2136;48.502;9.194;2023-04-03T08:43:35;11.70;46.10
4245;DHT22;2136;48.502;9.194;2023-04-03T08:46:05;11.50;45.90
4245;DHT22;2136;48.502;9.194;2023-04-03T08:48:38;11.40;46.00
4245;DHT22;2136;48.502;9.194;2023-04-03T08:51:12;11.30;46.40
4245;DHT22;2136;48.502;9.194;2023-04-03T08:53:43;11.10;46.70
4245;DHT22;2136;48.502;9.194;2023-04-03T08:56:11;11.00;46.60
4245;DHT22;2136;48.502;9.194;2023-04-03T08:58:46;10.90;46.40
4245;DHT22;2136;48.502;9.194;2023-04-03T09:01:19;11.10;46.80
4245;DHT22;2136;48.502;9.194;2023-04-03T09:03:46;10.90;46.90
4245;DHT22;2136;48.502;9.194;2023-04-03T09:06:15;10.70;46.90
4245;DHT22;2136;48.502;9.194;2023-04-03T09:08:46;10.70;47.20
4245;DHT22;2136;48.502;9.194;2023-04-03T09:11:20;10.80;47.50
4245;DHT22;2136;48.502;9.194;2023-04-03T09:13:54;10.60;47.60
4245;DHT22;2136;48.502;9.194;2023-04-03T09:16:30;10.70;47.90
4245;DHT22;2136;48.502;9.194;2023-04-03T09:19:07;10.60;48.00
4245;DHT22;2136;48.502;9.194;2023-04-03T09:21:38;10.60;47.80
4245;DHT22;2136;48.502;9.194;2023-04-03T09:24:09;10.50;47.90
4245;DHT22;2136;48.502;9.194;2023-04-03T09:26:42;10.50;48.00
4245;DHT22;2136;48.502;9.194;2023-04-03T09:29:17;10.50;48.20
4245;DHT22;2136;48.502;9.194;2023-04-03T09:31:48;10.40;48.20
4245;DHT22;2136;48.502;9.194;2023-04-03T09:34:20;10.30;48.50
4245;DHT22;2136;48.502;9.194;2023-04-03T09:36:50;10.30;48.50
4245;DHT22;2136;48.502;9.194;2023-04-03T09:39:19;10.20;47.60
4245;DHT22;2136;48.502;9.194;2023-04-03T09:41:59;10.10;47.10
4245;DHT22;2136;48.502;9.194;2023-04-03T09:44:30;10.10;47.40
4245;DHT22;2136;48.502;9.194;2023-04-03T09:46:57;10.10;47.00
4245;DHT22;2136;48.502;9.194;2023-04-03T09:49:25;10.00;47.10
4245;DHT22;2136;48.502;9.194;2023-04-03T09:51:51;10.00;46.80
4245;DHT22;2136;48.502;9.194;2023-04-03T09:54:39;9.90;47.70
4245;DHT22;2136;48.502;9.194;2023-04-03T09:57:09;9.80;47.80
4245;DHT22;2136;48.502;9.194;2023-04-03T09:59:43;9.80;48.10
4245;DHT22;2136;48.502;9.194;2023-04-03T10:02:32;9.80;49.10
4245;DHT22;2136;48.502;9.194;2023-04-03T10:05:00;9.70;49.00
4245;DHT22;2136;48.502;9.194;2023-04-03T10:07:33;9.60;49.10
4245;DHT22;2136;48.502;9.194;2023-04-03T10:10:14;9.70;49.20
4245;DHT22;2136;48.502;9.194;2023-04-03T10:12:41;9.80;49.50
4245;DHT22;2136;48.502;9.194;2023-04-03T10:15:13;9.90;49.30
4245;DHT22;2136;48.502;9.194;2023-04-03T10:17:49;10.00;48.40
4245;DHT22;2136;48.502;9.194;2023-04-03T10:20:27;10.00;48.20
4245;DHT22;2136;48.502;9.194;2023-04-03T10:23:05;10.00;47.70
4245;DHT22;2136;48.502;9.194;2023-04-03T10:25:41;10.10;47.60
4245;DHT22;2136;48.502;9.194;2023-04-03T10:28:14;10.00;47.20
4245;DHT22;2136;48.502;9.194;2023-04-03T10:30:49;10.00;47.20
4245;DHT22;2136;48.502;9.194;2023-04-03T10:33:22;10.00;47.20
4245;DHT22;2136;48.502;9.194;2023-04-03T10:36:02;10.00;47.50
4245;DHT22;2136;48.502;9.194;2023-04-03T10:38:43;9.90;48.20
4245;DHT22;2136;48.502;9.194;2023-04-03T10:41:17;9.90;48.90
4245;DHT22;2136;48.502;9.194;2023-04-03T10:43:53;9.90;48.60
4245;DHT22;2136;48.502;9.194;2023-04-03T10:46:27;9.90;48.00
4245;DHT22;2136;48.502;9.194;2023-04-03T10:49:10;9.80;48.00
4245;DHT22;2136;48.502;9.194;2023-04-03T10:51:42;9.80;48.20
4245;DHT22;2136;48.502;9.194;2023-04-03T10:54:12;9.80;47.70
4245;DHT22;2136;48.502;9.194;2023-04-03T10:56:42;9.90;47.00
4245;DHT22;2136;48.502;9.194;2023-04-03T10:59:21;9.90;47.00
4245;DHT22;2136;48.502;9.194;2023-04-03T11:01:53;9.80;47.20
4245;DHT22;2136;48.502;9.194;2023-04-03T11:04:25;9.80;47.60
4245;DHT22;2136;48.502;9.194;2023-04-03T11:06:57;9.80;46.90
4245;DHT22;2136;48.502;9.194;2023-04-03T11:09:28;9.90;47.30
4245;DHT22;2136;48.502;9.194;2023-04-03T11:12:02;10.10;46.50
4245;DHT22;2136;48.502;9.194;2023-04-03T11:14:32;10.10;45.90
4245;DHT22;2136;48.502;9.194;2023-04-03T11:17:08;10.20;45.60
4245;DHT22;2136;48.502;9.194;2023-04-03T11:19:42;10.30;45.50
4245;DHT22;2136;48.502;9.194;2023-04-03T11:22:18;10.20;45.10
4245;DHT22;2136;48.502;9.194;2023-04-03T11:24:57;10.30;44.90
4245;DHT22;2136;48.502;9.194;2023-04-03T11:27:27;10.40;45.50
4245;DHT22;2136;48.502;9.194;2023-04-03T11:29:59;10.20;45.40
4245;DHT22;2136;48.502;9.194;2023-04-03T11:32:48;10.10;45.60
4245;DHT22;2136;48.502;9.194;2023-04-03T11:35:21;10.00;45.40
4245;DHT22;2136;48.502;9.194;2023-04-03T11:37:51;10.00;45.40
4245;DHT22;2136;48.502;9.194;2023-04-03T11:40:24;10.00;46.00
4245;DHT22;2136;48.502;9.194;2023-04-03T11:42:54;10.00;45.10
4245;DHT22;2136;48.502;9.194;2023-04-03T11:45:31;10.00;45.50
4245;DHT22;2136;48.502;9.194;2023-04-03T11:48:01;10.00;45.10
4245;DHT22;2136;48.502;9.194;2023-04-03T11:50:45;9.90;45.50
4245;DHT22;2136;48.502;9.194;2023-04-03T11:53:33;9.80;46.40
4245;DHT22;2136;48.502;9.194;2023-04-03T11:56:03;9.80;45.50
4245;DHT22;2136;48.502;9.194;2023-04-03T11:58:32;9.70;45.30
4245;DHT22;2136;48.502;9.194;2023-04-03T12:01:01;9.70;45.60
4245;DHT22;2136;48.502;9.194;2023-04-03T12:10:13;9.60;46.30
4245;DHT22;2136;48.502;9.194;2023-04-03T12:12:41;9.70;46.10
4245;DHT22;2136;48.502;9.194;2023-04-03T12:15:38;9.50;45.30
4245;DHT22;2136;48.502;9.194;2023-04-03T12:21:18;9.60;45.70
4245;DHT22;2136;48.502;9.194;2023-04-03T12:24:03;9.70;45.90
4245;DHT22;2136;48.502;9.194;2023-04-03T12:26:38;9.70;45.90
4245;DHT22;2136;48.502;9.194;2023-04-03T12:29:15;9.90;45.40
4245;DHT22;2136;48.502;9.194;2023-04-03T12:31:49;9.90;45.40
4245;DHT22;2136;48.502;9.194;2023-04-03T12:34:33;9.90;45.50
4245;DHT22;2136;48.502;9.194;2023-04-03T12:37:12;9.80;45.40
4245;DHT22;2136;48.502;9.194;2023-04-03T12:39:55;9.90;45.00
4245;DHT22;2136;48.502;9.194;2023-04-03T12:42:43;9.80;45.30
4245;DHT22;2136;48.502;9.194;2023-04-03T12:45:19;9.80;45.00
4245;DHT22;2136;48.502;9.194;2023-04-03T12:47:49;9.80;45.50
4245;DHT22;2136;48.502;9.194;2023-04-03T12:50:21;9.70;45.60
4245;DHT22;2136;48.502;9.194;2023-04-03T12:52:54;9.70;45.00
4245;DHT22;2136;48.502;9.194;2023-04-03T12:55:22;9.70;44.90
4245;DHT22;2136;48.502;9.194;2023-04-03T12:57:50;9.90;45.10
4245;DHT22;2136;48.502;9.194;2023-04-03T13:00:35;10.10;44.70
4245;DHT22;2136;48.502;9.194;2023-04-03T13:03:06;10.40;44.30
4245;DHT22;2136;48.502;9.194;2023-04-03T13:05:44;10.50;43.50
4245;DHT22;2136;48.502;9.194;2023-04-03T13:08:12;10.40;43.30
4245;DHT22;2136;48.502;9.194;2023-04-03T13:10:51;10.50;42.90
4245;DHT22;2136;48.502;9.194;2023-04-03T13:13:21;10.50;42.50
4245;DHT22;2136;48.502;9.194;2023-04-03T13:15:49;10.40;42.60
4245;DHT22;2136;48.502;9.194;2023-04-03T13:18:25;10.30;42.60
4245;DHT22;2136;48.502;9.194;2023-04-03T13:20:52;10.30;42.70
4245;DHT22;2136;48.502;9.194;2023-04-03T13:23:22;10.20;42.80
4245;DHT22;2136;48.502;9.194;2023-04-03T13:25:50;10.20;43.10
4245;DHT22;2136;48.502;9.194;2023-04-03T13:28:21;10.20;42.90
4245;DHT22;2136;48.502;9.194;2023-04-03T13:30:59;10.10;42.40
4245;DHT22;2136;48.502;9.194;2023-04-03T13:33:29;10.20;42.40
4245;DHT22;2136;48.502;9.194;2023-04-03T13:35:58;10.10;42.50
4245;DHT22;2136;48.502;9.194;2023-04-03T13:38:28;10.00;42.40
4245;DHT22;2136;48.502;9.194;2023-04-03T13:41:00;10.10;42.50
4245;DHT22;2136;48.502;9.194;2023-04-03T13:43:32;10.00;42.50
4245;DHT22;2136;48.502;9.194;2023-04-03T13:46:03;10.00;43.20
4245;DHT22;2136;48.502;9.194;2023-04-03T13:48:36;9.80;44.00
4245;DHT22;2136;48.502;9.194;2023-04-03T13:51:05;9.80;44.40
4245;DHT22;2136;48.502;9.194;2023-04-03T13:53:40;9.80;43.90
4245;DHT22;2136;48.502;9.194;2023-04-03T13:56:15;9.80;43.90
4245;DHT22;2136;48.502;9.194;2023-04-03T13:58:56;9.80;44.00
4245;DHT22;2136;48.502;9.194;2023-04-03T14:01:25;9.60;44.00
4245;DHT22;2136;48.502;9.194;2023-04-03T14:03:55;9.70;44.20
4245;DHT22;2136;48.502;9.194;2023-04-03T14:06:22;9.60;44.60
4245;DHT22;2136;48.502;9.194;2023-04-03T14:08:49;9.60;44.20
4245;DHT22;2136;48.502;9.194;2023-04-03T14:11:19;9.60;44.90
4245;DHT22;2136;48.502;9.194;2023-04-03T14:13:48;9.60;44.40
4245;DHT22;2136;48.502;9.194;2023-04-03T14:16:19;9.60;44.50
4245;DHT22;2136;48.502;9.194;2023-04-03T14:18:47;9.70;44.50
4245;DHT22;2136;48.502;9.194;2023-04-03T14:21:17;9.70;44.80
4245;DHT22;2136;48.502;9.194;2023-04-03T14:23:44;9.80;44.80
4245;DHT22;2136;48.502;9.194;2023-04-03T14:26:13;9.90;44.40
4245;DHT22;2136;48.502;9.194;2023-04-03T14:28:42;10.10;43.60
4245;DHT22;2136;48.502;9.194;2023-04-03T14:31:10;9.90;43.60
4245;DHT22;2136;48.502;9.194;2023-04-03T14:33:39;9.90;43.60
4245;DHT22;2136;48.502;9.194;2023-04-03T14:36:12;9.80;43.50
4245;DHT22;2136;48.502;9.194;2023-04-03T14:38:39;9.90;44.00
4245;DHT22;2136;48.502;9.194;2023-04-03T14:41:07;9.90;43.50
4245;DHT22;2136;48.502;9.194;2023-04-03T14:46:00;10.20;44.00
4245;DHT22;2136;48.502;9.194;2023-04-03T14:48:27;10.20;42.90
4245;DHT22;2136;48.502;9.194;2023-04-03T14:50:57;10.30;42.90
4245;DHT22;2136;48.502;9.194;2023-04-03T14:53:24;10.30;42.40
4245;DHT22;2136;48.502;9.194;2023-04-03T14:55:52;10.30;42.50
4245;DHT22;2136;48.502;9.194;2023-04-03T14:58:20;10.20;42.20
4245;DHT22;2136;48.502;9.194;2023-04-03T15:00:47;10.20;42.50
4245;DHT22;2136;48.502;9.194;2023-04-03T15:03:15;10.10;42.50
4245;DHT22;2136;48.502;9.194;2023-04-03T15:05:44;10.20;42.70
4245;DHT22;2136;48.502;9.194;2023-04-03T15:08:20;10.20;42.30
4245;DHT22;2136;48.502;9.194;2023-04-03T15:10:48;10.20;42.00
4245;DHT22;2136;48.502;9.194;2023-04-03T15:13:15;10.30;42.00
4245;DHT22;2136;48.502;9.194;2023-04-03T15:15:42;10.30;41.80
4245;DHT22;2136;48.502;9.194;2023-04-03T15:18:14;10.30;41.80
4245;DHT22;2136;48.502;9.194;2023-04-03T15:20:42;10.30;41.60
4245;DHT22;2136;48.502;9.194;2023-04-03T15:23:10;10.40;41.50
4245;DHT22;2136;48.502;9.194;2023-04-03T15:25:38;10.30;41.80
4245;DHT22;2136;48.502;9.194;2023-04-03T15:28:08;10.30;41.40
4245;DHT22;2136;48.502;9.194;2023-04-03T15:30:36;10.00;40.80
4245;DHT22;2136;48.502;9.194;2023-04-03T15:33:05;9.90;42.00
4245;DHT22;2136;48.502;9.194;2023-04-03T15:35:32;9.90;42.40
4245;DHT22;2136;48.502;9.194;2023-04-03T15:37:59;9.90;42.50
4245;DHT22;2136;48.502;9.194;2023-04-03T15:40:26;9.80;42.60
4245;DHT22;2136;48.502;9.194;2023-04-03T15:42:54;9.70;42.70
4245;DHT22;2136;48.502;9.194;2023-04-03T15:45:21;9.70;42.90
4245;DHT22;2136;48.502;9.194;2023-04-03T15:47:48;9.70;43.00
4245;DHT22;2136;48.502;9.194;2023-04-03T15:50:15;9.70;42.90
4245;DHT22;2136;48.502;9.194;2023-04-03T15:52:43;9.70;42.90
4245;DHT22;2136;48.502;9.194;2023-04-03T15:55:10;9.60;43.10
4245;DHT22;2136;48.502;9.194;2023-04-03T15:57:37;9.70;43.20
4245;DHT22;2136;48.502;9.194;2023-04-03T16:00:06;9.70;44.20
4245;DHT22;2136;48.502;9.194;2023-04-03T16:02:34;9.80;43.80
4245;DHT22;2136;48.502;9.194;2023-04-03T16:05:01;9.90;43.40
4245;DHT22;2136;48.502;9.194;2023-04-03T16:07:27;9.80;43.00
4245;DHT22;2136;48.502;9.194;2023-04-03T16:09:54;9.80;42.60
4245;DHT22;2136;48.502;9.194;2023-04-03T16:12:21;9.90;42.30
4245;DHT22;2136;48.502;9.194;2023-04-03T16:14:48;9.80;42.70
4245;DHT22;2136;48.502;9.194;2023-04-03T16:17:16;9.80;42.50
4245;DHT22;2136;48.502;9.194;2023-04-03T16:19:43;9.80;42.30
4245;DHT22;2136;48.502;9.194;2023-04-03T16:22:10;9.70;42.10
4245;DHT22;2136;48.502;9.194;2023-04-03T16:24:37;9.80;41.90
4245;DHT22;2136;48.502;9.194;2023-04-03T16:27:04;9.60;42.00
4245;DHT22;2136;48.502;9.194;2023-04-03T16:29:31;9.50;41.90
4245;DHT22;2136;48.502;9.194;2023-04-03T16:31:58;9.50;41.70
4245;DHT22;2136;48.502;9.194;2023-04-03T16:34:26;9.50;41.80
4245;DHT22;2136;48.502;9.194;2023-04-03T16:36:55;9.40;41.40
4245;DHT22;2136;48.502;9.194;2023-04-03T16:39:22;9.30;41.40
4245;DHT22;2136;48.502;9.194;2023-04-03T16:41:49;9.20;41.40
4245;DHT22;2136;48.502;9.194;2023-04-03T16:44:16;9.10;41.60